createdAt,value
2023-01-11T00:02:03.052Z,-10.24
2023-01-11T00:07:05.280Z,-10.24
2023-01-11T00:12:08.404Z,-10.26
2023-01-11T00:17:10.597Z,-10.34
2023-01-11T00:22:12.813Z,-10.33
2023-01-11T00:27:14.981Z,-10.26
2023-01-11T00:32:17.165Z,-10.19
2023-01-11T00:37:19.610Z,-10.16
2023-01-11T00:42:40.538Z,-10.11
2023-01-11T00:47:57.834Z,-10.04
2023-01-11T00:53:00.353Z,-10.18
2023-01-11T00:58:02.844Z,-10.06
2023-01-11T01:03:04.955Z,-10.15
2023-01-11T01:08:07.333Z,-10.09
2023-01-11T01:13:37.474Z,-10.03
2023-01-11T01:18:39.508Z,-10.07
2023-01-11T01:23:41.669Z,-9.95
2023-01-11T01:28:43.747Z,-9.97
2023-01-11T01:33:45.918Z,-10.10
2023-01-11T01:38:47.957Z,-9.88
2023-01-11T01:43:54.061Z,-9.87
2023-01-11T01:49:12.353Z,-9.81
2023-01-11T01:54:23.168Z,-9.79
2023-01-11T01:59:29.755Z,-9.81
2023-01-11T02:04:37.548Z,-9.83
2023-01-11T02:09:47.579Z,-9.81
2023-01-11T02:14:50.790Z,-9.86
2023-01-11T02:20:08.429Z,-9.87
2023-01-11T02:25:23.675Z,-9.87
2023-01-11T02:30:34.792Z,-9.87
2023-01-11T02:36:01.245Z,-9.86
2023-01-11T02:41:16.680Z,-9.88
2023-01-11T02:46:24.374Z,-9.91
2023-01-11T02:51:34.206Z,-9.91
2023-01-11T02:56:43.540Z,-10.01
2023-01-11T03:01:55.710Z,-9.89
2023-01-11T03:07:23.974Z,-9.85
2023-01-11T03:12:57.769Z,-9.80
2023-01-11T03:18:20.804Z,-9.77
2023-01-11T03:23:27.616Z,-9.85
2023-01-11T03:28:38.575Z,-9.85
2023-01-11T03:33:52.530Z,-9.86
2023-01-11T03:39:01.492Z,-9.86
2023-01-11T03:44:08.062Z,-9.86
2023-01-11T03:49:18.574Z,-9.87
2023-01-11T03:54:26.888Z,-9.79
2023-01-11T03:59:29.078Z,-9.81
2023-01-11T04:04:31.441Z,-9.86
2023-01-11T04:09:33.616Z,-9.98
2023-01-11T04:14:35.682Z,-9.88
2023-01-11T04:19:37.743Z,-9.92
2023-01-11T04:24:39.923Z,-9.95
2023-01-11T04:29:42.127Z,-9.88
2023-01-11T04:34:44.218Z,-9.88
2023-01-11T04:39:46.371Z,-9.77
2023-01-11T04:44:50.235Z,-9.81
2023-01-11T04:49:52.397Z,-9.82
2023-01-11T04:54:54.537Z,-9.87
2023-01-11T04:59:56.673Z,-9.89
2023-01-11T05:04:58.732Z,-9.93
2023-01-11T05:10:00.829Z,-9.97
2023-01-11T05:15:02.907Z,-10.17
2023-01-11T05:20:05.926Z,-10.04
2023-01-11T05:25:08.563Z,-10.11
2023-01-11T05:30:12.888Z,-10.04
2023-01-11T05:35:14.995Z,-10.06
2023-01-11T05:40:17.294Z,-9.99
2023-01-11T05:45:35.781Z,-9.96
2023-01-11T05:50:37.777Z,-9.95
2023-01-11T05:55:39.835Z,-9.94
2023-01-11T06:00:41.880Z,-9.96
2023-01-11T06:05:46.018Z,-9.93
2023-01-11T06:10:55.652Z,-9.82
2023-01-11T06:16:02.190Z,-9.74
2023-01-11T06:21:05.246Z,-9.75
2023-01-11T06:26:09.976Z,-9.65
2023-01-11T06:31:12.547Z,-9.67
2023-01-11T06:36:15.747Z,-9.57
2023-01-11T06:41:17.854Z,-9.59
2023-01-11T06:46:20.379Z,-9.46
2023-01-11T06:51:22.498Z,-9.44
2023-01-11T06:56:24.656Z,-9.40
2023-01-11T07:01:27.524Z,-9.40
2023-01-11T07:06:32.133Z,-9.25
2023-01-11T07:11:39.048Z,-9.21
2023-01-11T07:16:41.579Z,-9.16
2023-01-11T07:21:43.965Z,-8.99
2023-01-11T07:26:45.984Z,-8.94
2023-01-11T07:31:48.423Z,-8.98
2023-01-11T07:36:50.576Z,-8.86
2023-01-11T07:42:11.412Z,-8.95
2023-01-11T07:47:13.546Z,-8.81
2023-01-11T07:52:15.655Z,-8.93
2023-01-11T07:57:17.776Z,-8.62
2023-01-11T08:02:19.837Z,-8.64
2023-01-11T08:07:21.883Z,-8.49
2023-01-11T08:12:42.381Z,-8.44
2023-01-11T08:17:44.470Z,-8.32
2023-01-11T08:22:48.312Z,-8.19
2023-01-11T08:27:50.514Z,-8.19
2023-01-11T08:32:52.544Z,-8.08
2023-01-11T08:37:54.738Z,-7.96
2023-01-11T08:42:57.718Z,-7.98
2023-01-11T08:48:00.509Z,-7.80
2023-01-11T08:53:02.553Z,-7.69
2023-01-11T08:58:04.658Z,-7.90
2023-01-11T09:03:06.911Z,-7.84
2023-01-11T09:08:09.467Z,-7.83
2023-01-11T09:13:11.592Z,-7.78
2023-01-11T09:18:14.538Z,-7.78
2023-01-11T09:23:16.573Z,-7.60
2023-01-11T09:28:18.740Z,-7.70
2023-01-11T09:33:20.897Z,-7.58
2023-01-11T09:38:25.347Z,-7.54
2023-01-11T09:43:30.373Z,-7.58
2023-01-11T09:48:44.574Z,-7.55
2023-01-11T09:53:52.443Z,-7.74
2023-01-11T09:59:06.558Z,-7.72
2023-01-11T10:04:33.393Z,-7.62
2023-01-11T10:18:29.965Z,-7.70
2023-01-11T10:21:02.104Z,-7.48
2023-01-11T10:26:13.146Z,-7.40
2023-01-11T10:31:37.820Z,-7.26
2023-01-11T10:37:33.758Z,-7.21
2023-01-11T10:42:46.723Z,-7.28
2023-01-11T10:48:01.560Z,-7.10
2023-01-11T10:53:17.141Z,-7.11
2023-01-11T10:58:26.621Z,-7.08
2023-01-11T11:04:04.041Z,-7.09
2023-01-11T11:09:35.309Z,-7.07
2023-01-11T11:14:43.250Z,-7.11
2023-01-11T11:19:45.379Z,-7.15
2023-01-11T11:25:04.039Z,-7.24
2023-01-11T11:30:11.642Z,-7.26
2023-01-11T11:35:45.775Z,-7.28
2023-01-11T11:40:58.259Z,-7.34
2023-01-11T11:46:03.061Z,-7.27
2023-01-11T11:51:08.151Z,-7.28
2023-01-11T11:56:29.403Z,-7.27
2023-01-11T12:01:31.696Z,-7.18
2023-01-11T12:06:33.804Z,-7.27
2023-01-11T12:11:42.154Z,-7.31
2023-01-11T12:16:45.963Z,-7.31
2023-01-11T12:21:48.045Z,-7.37
2023-01-11T12:27:16.627Z,-7.38
2023-01-11T12:32:37.378Z,-7.41
2023-01-11T12:37:39.368Z,-7.53
2023-01-11T12:43:25.982Z,-7.53
2023-01-11T12:48:43.724Z,-7.60
2023-01-11T12:54:27.525Z,-7.76
2023-01-11T12:59:32.503Z,-7.82
2023-01-11T13:05:05.528Z,-7.81
2023-01-11T13:10:29.968Z,-7.81
2023-01-11T13:15:55.756Z,-7.78
2023-01-11T13:21:10.072Z,-7.78
2023-01-11T13:26:29.733Z,-7.75
2023-01-11T13:31:35.681Z,-7.72
2023-01-11T13:36:44.136Z,-7.81
2023-01-11T13:41:51.419Z,-7.73
2023-01-11T13:47:09.384Z,-7.65
2023-01-11T13:52:14.941Z,-7.67
2023-01-11T13:57:54.662Z,-7.68
2023-01-11T14:03:15.341Z,-7.73
2023-01-11T14:08:44.218Z,-7.63
2023-01-11T14:14:13.423Z,-7.67
2023-01-11T14:19:23.234Z,-7.61
2023-01-11T14:24:28.949Z,-7.63
2023-01-11T14:29:45.245Z,-7.62
2023-01-11T14:35:28.537Z,-7.45
2023-01-11T14:40:51.705Z,-7.46
2023-01-11T14:46:05.944Z,-7.45
2023-01-11T14:51:33.097Z,-7.48
2023-01-11T14:56:44.972Z,-7.44
2023-01-11T15:02:06.871Z,-7.37
2023-01-11T15:07:30.533Z,-7.52
2023-01-11T15:12:38.677Z,-7.61
2023-01-11T15:18:00.627Z,-7.61
2023-01-11T15:23:05.251Z,-7.62
2023-01-11T15:28:47.528Z,-7.58
2023-01-11T15:33:54.584Z,-7.61
2023-01-11T15:39:05.833Z,-7.58
2023-01-11T15:44:28.603Z,-7.65
2023-01-11T15:49:58.540Z,-7.67
2023-01-11T15:55:48.328Z,-7.61
2023-01-11T16:01:22.881Z,-7.63
2023-01-11T16:06:40.240Z,-7.63
2023-01-11T16:11:54.834Z,-7.62
2023-01-11T16:16:57.960Z,-7.60
2023-01-11T16:22:05.600Z,-7.82
2023-01-11T16:27:09.387Z,-7.70
2023-01-11T16:32:22.058Z,-7.71
2023-01-11T16:37:42.656Z,-7.60
2023-01-11T16:42:54.677Z,-7.56
2023-01-11T16:48:05.948Z,-7.55
2023-01-11T16:53:13.161Z,-7.56
2023-01-11T16:58:28.058Z,-7.55
2023-01-11T17:03:35.530Z,-7.53
2023-01-11T17:08:38.994Z,-7.49
2023-01-11T17:14:20.031Z,-7.36
2023-01-11T17:19:26.406Z,-7.35
2023-01-11T17:24:29.006Z,-7.27
2023-01-11T17:29:39.273Z,-7.25
2023-01-11T17:34:43.048Z,-7.18
2023-01-11T17:39:55.483Z,-7.15
2023-01-11T17:45:13.824Z,-7.09
2023-01-11T17:50:27.955Z,-7.06
2023-01-11T17:55:30.592Z,-7.07
2023-01-11T18:00:32.779Z,-7.03
2023-01-11T18:05:35.089Z,-6.87
2023-01-11T18:10:40.381Z,-6.89
2023-01-11T18:15:47.721Z,-6.83
2023-01-11T18:20:49.773Z,-6.79
2023-01-11T18:26:27.468Z,-6.68
2023-01-11T18:31:29.800Z,-6.71
2023-01-11T18:36:31.967Z,-6.69
2023-01-11T18:41:58.259Z,-6.70
2023-01-11T18:47:00.316Z,-6.71
2023-01-11T18:52:02.386Z,-6.70
2023-01-11T18:57:04.717Z,-6.67
2023-01-11T19:02:23.268Z,-6.66
2023-01-11T19:07:26.376Z,-6.64
2023-01-11T19:12:28.681Z,-6.58
2023-01-11T19:17:31.780Z,-6.63
2023-01-11T19:22:33.868Z,-6.65
2023-01-11T19:27:37.265Z,-6.71
2023-01-11T19:32:39.416Z,-6.77
2023-01-11T19:37:41.474Z,-6.84
2023-01-11T19:42:43.572Z,-6.83
2023-01-11T19:47:47.155Z,-6.85
2023-01-11T19:52:49.524Z,-7.01
2023-01-11T19:57:51.688Z,-6.96
2023-01-11T20:02:53.907Z,-6.97
2023-01-11T20:07:56.044Z,-7.00
2023-01-11T20:12:58.156Z,-7.02
2023-01-11T20:18:01.111Z,-7.00
2023-01-11T20:23:03.174Z,-7.10
2023-01-11T20:28:05.218Z,-6.91
2023-01-11T20:33:10.153Z,-6.94
2023-01-11T20:38:12.205Z,-6.85
2023-01-11T20:43:14.345Z,-6.77
2023-01-11T20:48:16.479Z,-6.74
2023-01-11T20:53:18.623Z,-6.68
2023-01-11T20:58:20.808Z,-6.62
2023-01-11T21:03:24.575Z,-6.62
2023-01-11T21:08:27.060Z,-6.57
2023-01-11T21:13:29.120Z,-6.53
2023-01-11T21:18:31.293Z,-6.53
2023-01-11T21:23:34.134Z,-6.43
2023-01-11T21:28:36.205Z,-6.41
2023-01-11T21:33:39.329Z,-6.41
2023-01-11T21:38:41.458Z,-6.43
2023-01-11T21:43:44.912Z,-6.51
2023-01-11T21:48:47.035Z,-6.51
2023-01-11T21:53:49.165Z,-6.59
2023-01-11T21:58:51.827Z,-6.56
2023-01-11T22:03:54.025Z,-6.50
2023-01-11T22:08:56.125Z,-6.52
2023-01-11T22:13:59.174Z,-6.42
2023-01-11T22:19:02.803Z,-6.39
2023-01-11T22:24:07.780Z,-6.34
2023-01-11T22:29:17.065Z,-6.42
2023-01-11T22:34:19.647Z,-6.28
2023-01-11T22:39:21.763Z,-6.25
2023-01-11T22:44:24.101Z,-6.39
2023-01-11T22:49:26.649Z,-6.40
2023-01-11T22:54:28.835Z,-6.39
2023-01-11T22:59:30.971Z,-6.30
2023-01-11T23:04:35.944Z,-6.29
2023-01-11T23:09:38.002Z,-6.23
2023-01-11T23:14:41.182Z,-6.14
2023-01-11T23:19:44.046Z,-6.25
2023-01-11T23:24:46.150Z,-6.21
2023-01-11T23:29:48.216Z,-6.12
2023-01-11T23:34:50.269Z,-6.15
2023-01-11T23:39:52.397Z,-6.16
2023-01-11T23:44:55.632Z,-6.05
2023-01-11T23:50:02.590Z,-6.05
2023-01-11T23:55:05.776Z,-6.03
